Los Gatos, CA

6:00 PM PST on February 13, 2016 (GMT -0800)
Summit RD/Lexington Hills | | Change Station
CLOSE
Current Station
Personal Weather Station
Location: Los Gatos, CA
Elevation: 1529 ft
Nearby Weather Stations

Elev 1529 ft 37.14 °N, 121.96 °W | Updated 16 seconds ago

Clear
Clear
58.6 °F
Feels Like 58.6 °F
N
0.2
Wind Variable Wind from ESE
Gusts 2.5 mph

Today
High -- | Low -- °F
--% Chance of Precip.
Yesterday
High -- | Low -- °F
Precip. -- in
Pressure 30.23 in
Visibility 10.0 miles
Clouds Clear
Dew Point 47 °F
Humidity 64%
Rainfall 0.00 in
Snow Depth Not available.
6:59 AM 5:45 PM
Waxing Crescent, 36% visible
METAR KRHV 140150Z 29008KT 10SM SKC 17/10 A3023
Pressure 30.23 in
Visibility 10.0 miles
Clouds Clear
Dew Point 47 °F
Humidity 64%
Rainfall 0.00 in
Snow Depth Not available.
6:59 AM 5:45 PM
Waxing Crescent, 36% visible
METAR KRHV 140150Z 29008KT 10SM SKC 17/10 A3023

10-Day Weather Forecast

Almanac

Astronomy

Feb. 13, 2016 Rise Set
Actual Time
Civil Twilight
Nautical Twilight
Astronomical Twilight
Moon
Length of Visible Light
Length of Day
Tomorrow will be .
, % of the Moon is Illuminated

Today's Extremes

State Highs State Lows

Community

WunderPhotos

Upload Photos

1,892,722 photos uploaded!

WunderBlog® & News

Nearby

Air Quality

  Air Quality AQ Index Pollutant
Not available.

Snow Depth

Station Depth Elevation

Earthquake Activity

City Distance Mag. Time & Date
Minimum magnitude displayed is 2.5.

Coastal Water Temperatures

Place Temperature

Stations

Nearby Weather Stations

Station Location Temp. Windchill Dew Point Humidity Wind Precip. Elev Updated Type
                   

Watches & Warnings

There are currently no watches in effect.